Terminal Aerodrome Forecast
Issued by NWS Melbourne, FL

Home | Current Version | Previous Version | Text Only | Print | Product List | Glossary On
Versions: 1 2 3 4 5 6 7 8 9 10 11 12
000
FTUS42 KMLB 012338
TAFDAB
TAF
KDAB 012338Z 0200/0224 25007KT P6SM FEW060 SCT250
     FM020100 04009KT P6SM SCT040 SCT450
     FM020400 30004KT P6SM BKN250
     FM021400 09007KT P6SM SCT030
     FM021800 10008KT P6SM SCT045=

USA.gov is the U.S. government's official web portal to all federal, state and local government web resources and services.